createdAt,value
2022-12-31T00:01:19.472Z,1.61
2022-12-31T00:03:46.551Z,1.60
2022-12-31T00:06:25.651Z,1.58
2022-12-31T00:08:54.424Z,1.55
2022-12-31T00:11:26.810Z,1.52
2022-12-31T00:13:54.160Z,1.50
2022-12-31T00:16:23.853Z,1.48
2022-12-31T00:18:53.241Z,1.44
2022-12-31T00:21:21.276Z,1.43
2022-12-31T00:23:48.748Z,1.42
2022-12-31T00:26:18.182Z,1.42
2022-12-31T00:28:45.724Z,1.45
2022-12-31T00:31:18.936Z,1.49
2022-12-31T00:33:46.219Z,1.51
2022-12-31T00:36:16.052Z,1.49
2022-12-31T00:38:45.736Z,1.46
2022-12-31T00:41:13.518Z,1.41
2022-12-31T00:43:40.356Z,1.33
2022-12-31T00:46:08.641Z,1.27
2022-12-31T00:48:36.371Z,1.24
2022-12-31T00:51:20.114Z,1.22
2022-12-31T00:53:47.802Z,1.20
2022-12-31T00:56:17.175Z,1.18
2022-12-31T00:58:44.655Z,1.15
2022-12-31T01:01:15.141Z,1.09
2022-12-31T01:03:42.536Z,0.99
2022-12-31T01:06:09.429Z,0.91
2022-12-31T01:08:36.230Z,0.88
2022-12-31T01:11:18.545Z,0.85
2022-12-31T01:13:47.810Z,0.87
2022-12-31T01:16:14.847Z,0.90
2022-12-31T01:18:43.180Z,0.93
2022-12-31T01:21:12.083Z,0.96
2022-12-31T01:23:39.659Z,0.95
2022-12-31T01:26:08.705Z,0.90
2022-12-31T01:28:35.987Z,0.88
2022-12-31T01:31:06.891Z,0.86
2022-12-31T01:33:34.404Z,0.88
2022-12-31T01:36:04.363Z,0.91
2022-12-31T01:38:31.180Z,0.96
2022-12-31T01:40:58.006Z,1.03
2022-12-31T01:43:24.799Z,1.08
2022-12-31T01:45:54.298Z,1.16
2022-12-31T01:48:26.140Z,1.21
2022-12-31T01:50:54.736Z,1.21
2022-12-31T01:53:22.192Z,1.20
2022-12-31T01:55:54.236Z,1.21
2022-12-31T01:58:27.912Z,1.24
2022-12-31T02:00:55.303Z,1.26
2022-12-31T02:03:23.920Z,1.33
2022-12-31T02:05:54.536Z,1.36
2022-12-31T02:08:21.963Z,1.40
2022-12-31T02:10:48.873Z,1.44
2022-12-31T02:13:15.921Z,1.45
2022-12-31T02:15:49.104Z,1.46
2022-12-31T02:18:17.004Z,1.47
2022-12-31T02:20:59.137Z,1.50
2022-12-31T02:24:01.067Z,1.52
2022-12-31T02:26:31.153Z,1.53
2022-12-31T02:29:21.806Z,1.54
2022-12-31T02:32:04.199Z,1.53
2022-12-31T02:34:34.484Z,1.50
2022-12-31T02:37:06.990Z,1.48
2022-12-31T02:39:35.697Z,1.60
2022-12-31T02:42:02.822Z,1.82
2022-12-31T02:44:33.613Z,2.04
2022-12-31T02:47:23.233Z,2.32
2022-12-31T02:49:57.354Z,2.63
2022-12-31T02:52:24.013Z,2.87
2022-12-31T02:55:09.275Z,3.08
2022-12-31T02:57:55.103Z,3.29
2022-12-31T03:00:37.939Z,3.50
2022-12-31T03:03:08.085Z,3.74
2022-12-31T03:05:40.360Z,3.94
2022-12-31T03:08:07.692Z,4.10
2022-12-31T03:10:34.978Z,4.20
2022-12-31T03:13:01.728Z,4.27
2022-12-31T03:15:32.115Z,4.34
2022-12-31T03:18:02.070Z,4.42
2022-12-31T03:20:47.273Z,4.53
2022-12-31T03:23:17.359Z,4.70
2022-12-31T03:25:44.231Z,4.80
2022-12-31T03:28:15.558Z,4.86
2022-12-31T03:30:44.861Z,4.92
2022-12-31T03:33:12.565Z,4.98
2022-12-31T03:35:41.840Z,5.03
2022-12-31T03:38:09.257Z,5.09
2022-12-31T03:40:40.899Z,5.11
2022-12-31T03:43:08.278Z,5.13
2022-12-31T03:45:35.687Z,5.14
2022-12-31T03:48:04.719Z,5.17
2022-12-31T03:50:31.870Z,5.20
2022-12-31T03:52:58.799Z,5.22
2022-12-31T03:55:25.808Z,5.23
2022-12-31T03:57:52.917Z,5.25
2022-12-31T04:00:21.714Z,5.28
2022-12-31T04:02:49.402Z,5.33
2022-12-31T04:05:17.894Z,5.36
2022-12-31T04:07:45.028Z,5.35
2022-12-31T04:10:14.542Z,5.40
2022-12-31T04:12:42.107Z,5.43
2022-12-31T04:15:10.543Z,5.46
2022-12-31T04:17:37.509Z,5.53
2022-12-31T04:20:04.664Z,5.60
2022-12-31T04:22:31.421Z,5.65
2022-12-31T04:24:58.191Z,5.67
2022-12-31T04:27:25.110Z,5.70
2022-12-31T04:29:51.884Z,5.73
2022-12-31T04:32:18.818Z,5.75
2022-12-31T04:34:45.524Z,5.77
2022-12-31T04:37:13.119Z,5.79
2022-12-31T04:39:39.916Z,5.78
2022-12-31T04:42:06.677Z,5.79
2022-12-31T04:44:35.122Z,5.80
2022-12-31T04:47:02.242Z,5.81
2022-12-31T04:49:29.225Z,5.82
2022-12-31T04:51:55.985Z,5.85
2022-12-31T04:54:22.882Z,5.85
2022-12-31T04:56:50.000Z,5.88
2022-12-31T04:59:16.793Z,5.93
2022-12-31T05:01:43.579Z,5.96
2022-12-31T05:04:10.417Z,6.03
2022-12-31T05:06:37.166Z,6.07
2022-12-31T05:09:04.050Z,6.11
2022-12-31T05:11:30.848Z,6.16
2022-12-31T05:13:57.726Z,6.18
2022-12-31T05:16:24.502Z,6.21
2022-12-31T05:18:51.477Z,6.26
2022-12-31T05:21:21.283Z,6.33
2022-12-31T05:23:48.953Z,6.39
2022-12-31T05:26:16.181Z,6.45
2022-12-31T05:28:43.104Z,6.48
2022-12-31T05:31:10.591Z,6.52
2022-12-31T05:33:37.378Z,6.55
2022-12-31T05:36:04.616Z,6.59
2022-12-31T05:38:31.405Z,6.62
2022-12-31T05:41:02.296Z,6.64
2022-12-31T05:43:29.453Z,6.63
2022-12-31T05:45:56.494Z,6.63
2022-12-31T05:48:23.307Z,6.67
2022-12-31T05:50:50.257Z,6.70
2022-12-31T05:53:17.082Z,6.73
2022-12-31T05:55:47.327Z,6.76
2022-12-31T05:58:15.812Z,6.78
2022-12-31T06:00:43.083Z,6.80
2022-12-31T06:03:13.744Z,6.83
2022-12-31T06:05:42.735Z,6.88
2022-12-31T06:08:12.255Z,6.91
2022-12-31T06:10:40.147Z,6.93
2022-12-31T06:13:07.009Z,6.93
2022-12-31T06:15:38.899Z,6.94
2022-12-31T06:18:05.833Z,6.97
2022-12-31T06:20:32.640Z,7.01
2022-12-31T06:22:59.961Z,7.06
2022-12-31T06:25:26.986Z,7.10
2022-12-31T06:27:54.105Z,7.14
2022-12-31T06:30:21.091Z,7.17
2022-12-31T06:32:47.971Z,7.19
2022-12-31T06:35:14.784Z,7.22
2022-12-31T06:37:41.554Z,7.28
2022-12-31T06:40:08.881Z,7.33
2022-12-31T06:42:35.664Z,7.37
2022-12-31T06:45:02.422Z,7.39
2022-12-31T06:47:29.683Z,7.39
2022-12-31T06:49:56.540Z,7.39
2022-12-31T06:52:23.281Z,7.42
2022-12-31T06:54:50.954Z,7.43
2022-12-31T06:57:17.985Z,7.43
2022-12-31T06:59:45.205Z,7.42
2022-12-31T07:02:27.688Z,7.44
2022-12-31T07:04:55.782Z,7.48
2022-12-31T07:07:35.689Z,7.52
2022-12-31T07:10:04.479Z,7.58
2022-12-31T07:12:46.594Z,7.63
2022-12-31T07:15:17.184Z,7.69
2022-12-31T07:18:01.898Z,7.73
2022-12-31T07:20:29.043Z,7.83
2022-12-31T07:22:56.136Z,7.90
2022-12-31T07:25:24.960Z,7.96
2022-12-31T07:28:05.177Z,8.00
2022-12-31T07:30:53.760Z,8.06
2022-12-31T07:33:43.577Z,8.17
2022-12-31T07:36:33.068Z,8.30
2022-12-31T07:39:04.859Z,8.44
2022-12-31T07:41:46.833Z,8.53
2022-12-31T07:44:14.637Z,8.56
2022-12-31T07:46:59.108Z,8.57
2022-12-31T07:49:27.316Z,8.60
2022-12-31T07:51:54.758Z,8.65
2022-12-31T07:54:21.980Z,8.68
2022-12-31T07:56:50.295Z,8.74
2022-12-31T07:59:37.968Z,8.82
2022-12-31T08:02:20.243Z,8.97
2022-12-31T08:04:56.772Z,9.16
2022-12-31T08:07:34.455Z,9.36
2022-12-31T08:10:17.481Z,9.48
2022-12-31T08:12:47.095Z,9.64
2022-12-31T08:15:16.745Z,9.77
2022-12-31T08:17:43.930Z,9.90
2022-12-31T08:20:15.178Z,10.00
2022-12-31T08:23:00.721Z,10.09
2022-12-31T08:25:42.776Z,10.12
2022-12-31T08:28:32.464Z,10.22
2022-12-31T08:31:17.165Z,10.49
2022-12-31T08:33:50.753Z,10.61
2022-12-31T08:36:30.882Z,10.70
2022-12-31T08:39:07.247Z,10.88
2022-12-31T08:41:42.887Z,11.24
2022-12-31T08:44:25.344Z,11.56
2022-12-31T08:47:22.475Z,11.77
2022-12-31T08:49:49.481Z,11.83
2022-12-31T08:52:22.690Z,11.78
2022-12-31T08:54:49.930Z,11.70
2022-12-31T08:57:27.740Z,11.61
2022-12-31T09:00:05.774Z,11.53
2022-12-31T09:02:43.204Z,11.48
2022-12-31T09:05:24.460Z,11.41
2022-12-31T09:07:55.657Z,11.32
2022-12-31T09:10:30.461Z,11.26
2022-12-31T09:13:12.424Z,11.30
2022-12-31T09:15:42.792Z,11.51
2022-12-31T09:18:12.067Z,11.82
2022-12-31T09:20:44.172Z,12.14
2022-12-31T09:23:12.735Z,12.44
2022-12-31T09:25:50.552Z,12.66
2022-12-31T09:28:33.677Z,12.72
2022-12-31T09:31:11.559Z,12.69
2022-12-31T09:33:50.250Z,12.69
2022-12-31T09:36:23.210Z,12.69
2022-12-31T09:39:06.815Z,12.83
2022-12-31T09:41:52.279Z,13.06
2022-12-31T09:44:35.690Z,13.43
2022-12-31T09:47:33.345Z,13.75
2022-12-31T09:50:02.967Z,14.08
2022-12-31T09:52:57.891Z,14.21
2022-12-31T09:55:35.543Z,14.27
2022-12-31T09:58:17.924Z,14.11
2022-12-31T10:01:06.947Z,13.90
2022-12-31T10:03:37.082Z,13.71
2022-12-31T10:06:05.428Z,13.53
2022-12-31T10:08:50.023Z,13.44
2022-12-31T10:11:27.265Z,13.45
2022-12-31T10:14:08.296Z,13.43
2022-12-31T10:16:49.486Z,13.32
2022-12-31T10:19:27.116Z,13.18
2022-12-31T10:22:00.499Z,13.04
2022-12-31T10:24:28.313Z,13.00
2022-12-31T10:26:58.479Z,13.03
2022-12-31T10:29:32.238Z,13.15
2022-12-31T10:32:15.626Z,13.27
2022-12-31T10:34:54.937Z,13.28
2022-12-31T10:37:45.501Z,13.27
2022-12-31T10:40:25.524Z,13.24
2022-12-31T10:43:21.605Z,13.22
2022-12-31T10:46:22.872Z,13.20
2022-12-31T10:49:20.709Z,13.12
2022-12-31T10:51:47.543Z,13.04
2022-12-31T10:54:20.996Z,12.93
2022-12-31T10:56:54.646Z,12.92
2022-12-31T10:59:44.079Z,12.88
2022-12-31T11:02:11.983Z,12.84
2022-12-31T11:05:00.020Z,12.80
2022-12-31T11:07:49.478Z,12.82
2022-12-31T11:10:40.466Z,12.82
2022-12-31T11:13:34.649Z,12.82
2022-12-31T11:16:24.289Z,12.85
2022-12-31T11:19:14.729Z,12.89
2022-12-31T11:21:45.867Z,12.91
2022-12-31T11:24:20.047Z,12.93
2022-12-31T11:27:02.311Z,12.98
2022-12-31T11:29:44.484Z,13.04
2022-12-31T11:32:32.810Z,13.10
2022-12-31T11:35:22.219Z,13.14
2022-12-31T11:37:52.905Z,13.13
2022-12-31T11:40:26.370Z,13.15
2022-12-31T11:43:01.722Z,13.20
2022-12-31T11:45:59.399Z,13.24
2022-12-31T11:48:50.858Z,13.29
2022-12-31T11:51:18.732Z,13.43
2022-12-31T11:54:16.842Z,13.61
2022-12-31T11:56:52.839Z,13.79
2022-12-31T11:59:20.925Z,13.99
2022-12-31T12:02:18.184Z,14.24
2022-12-31T12:04:48.765Z,14.58
2022-12-31T12:07:16.738Z,14.70
2022-12-31T12:09:44.977Z,14.72
2022-12-31T12:12:12.613Z,14.75
2022-12-31T12:14:42.641Z,14.83
2022-12-31T12:17:16.645Z,14.89
2022-12-31T12:19:47.458Z,15.00
2022-12-31T12:22:22.100Z,15.03
2022-12-31T12:24:53.501Z,15.00
2022-12-31T12:27:24.043Z,14.96
2022-12-31T12:29:50.859Z,14.80
2022-12-31T12:32:21.730Z,14.62
2022-12-31T12:34:50.125Z,14.45
2022-12-31T12:37:34.522Z,14.33
2022-12-31T12:40:09.551Z,14.22
2022-12-31T12:42:36.381Z,14.14
2022-12-31T12:45:08.404Z,14.08
2022-12-31T12:47:35.221Z,14.02
2022-12-31T12:50:03.418Z,13.95
2022-12-31T12:53:00.974Z,13.87
2022-12-31T12:55:41.442Z,13.81
2022-12-31T12:58:24.798Z,13.77
2022-12-31T13:01:00.242Z,13.74
2022-12-31T13:04:23.848Z,13.71
2022-12-31T13:07:02.121Z,13.68
2022-12-31T13:09:45.638Z,13.69
2022-12-31T13:13:05.253Z,13.72
2022-12-31T13:15:36.778Z,13.74
2022-12-31T13:18:19.109Z,13.73
2022-12-31T13:20:55.924Z,13.69
2022-12-31T13:23:39.794Z,13.65
2022-12-31T13:26:13.645Z,13.64
2022-12-31T13:28:43.681Z,13.63
2022-12-31T13:31:15.384Z,13.60
2022-12-31T13:33:48.390Z,13.59
2022-12-31T13:36:19.276Z,13.57
2022-12-31T13:38:51.491Z,13.54
2022-12-31T13:41:18.235Z,13.51
2022-12-31T13:43:56.967Z,13.52
2022-12-31T13:46:28.396Z,13.51
2022-12-31T13:49:01.601Z,13.48
2022-12-31T13:51:46.173Z,13.46
2022-12-31T13:54:32.323Z,13.39
2022-12-31T13:57:05.109Z,13.35
2022-12-31T13:59:37.780Z,13.32
2022-12-31T14:02:24.798Z,13.28
2022-12-31T14:05:00.237Z,13.26
2022-12-31T14:07:39.078Z,13.22
2022-12-31T14:10:16.034Z,13.17
2022-12-31T14:12:42.890Z,13.09
2022-12-31T14:15:31.519Z,13.09
2022-12-31T14:18:00.337Z,13.06
2022-12-31T14:20:31.980Z,13.03
2022-12-31T14:23:12.398Z,12.99
2022-12-31T14:25:48.102Z,12.93
2022-12-31T14:28:21.257Z,12.87
2022-12-31T14:30:52.492Z,12.81
2022-12-31T14:33:32.557Z,12.77
2022-12-31T14:36:12.718Z,12.74
2022-12-31T14:38:57.061Z,12.71
2022-12-31T14:41:36.862Z,12.66
2022-12-31T14:44:32.459Z,12.60
2022-12-31T14:47:17.696Z,12.54
2022-12-31T14:50:05.306Z,12.51
2022-12-31T14:52:35.304Z,12.49
2022-12-31T14:55:22.976Z,12.47
2022-12-31T15:00:40.027Z,12.37
2022-12-31T15:03:24.559Z,12.32
2022-12-31T15:05:51.626Z,12.21
2022-12-31T15:08:22.415Z,12.19
2022-12-31T15:11:12.235Z,12.18
2022-12-31T15:13:54.296Z,12.19
2022-12-31T15:16:46.216Z,12.19
2022-12-31T15:19:29.443Z,12.17
2022-12-31T15:22:14.770Z,12.14
2022-12-31T15:24:46.714Z,12.13
2022-12-31T15:27:37.954Z,12.14
2022-12-31T15:30:07.107Z,12.13
2022-12-31T15:32:39.407Z,12.11
2022-12-31T15:35:21.331Z,12.06
2022-12-31T15:38:11.267Z,12.03
2022-12-31T15:40:47.096Z,12.01
2022-12-31T15:43:32.558Z,12.01
2022-12-31T15:45:59.860Z,11.99
2022-12-31T15:48:36.635Z,11.98
2022-12-31T15:51:05.232Z,11.96
2022-12-31T15:53:38.936Z,11.93
2022-12-31T15:56:08.423Z,11.92
2022-12-31T15:58:37.295Z,11.91
2022-12-31T16:01:19.490Z,11.91
2022-12-31T16:03:55.595Z,11.90
2022-12-31T16:06:22.656Z,11.89
2022-12-31T16:08:50.415Z,11.89
2022-12-31T16:11:17.923Z,11.84
2022-12-31T16:13:49.034Z,11.82
2022-12-31T16:16:25.575Z,11.81
2022-12-31T16:18:53.447Z,11.83
2022-12-31T16:21:24.479Z,11.84
2022-12-31T16:23:53.631Z,11.88
2022-12-31T16:26:21.804Z,11.91
2022-12-31T16:28:49.287Z,11.92
2022-12-31T16:31:20.094Z,11.96
2022-12-31T16:33:47.950Z,12.04
2022-12-31T16:36:21.233Z,12.08
2022-12-31T16:38:48.816Z,12.08
2022-12-31T16:41:24.602Z,12.08
2022-12-31T16:43:51.434Z,12.08
2022-12-31T16:46:25.631Z,12.09
2022-12-31T16:48:57.073Z,12.08
2022-12-31T16:51:29.906Z,12.07
2022-12-31T16:53:58.177Z,12.06
2022-12-31T16:56:33.166Z,12.05
2022-12-31T16:59:06.538Z,12.06
2022-12-31T17:01:37.161Z,12.09
2022-12-31T17:04:11.897Z,12.12
2022-12-31T17:06:38.739Z,12.13
2022-12-31T17:09:22.107Z,12.14
2022-12-31T17:11:54.793Z,12.13
2022-12-31T17:14:26.380Z,12.12
2022-12-31T17:17:01.625Z,12.13
2022-12-31T17:19:47.414Z,12.15
2022-12-31T17:22:36.462Z,12.18
2022-12-31T17:25:20.135Z,12.18
2022-12-31T17:28:03.513Z,12.16
2022-12-31T17:30:30.289Z,12.17
2022-12-31T17:33:01.007Z,12.18
2022-12-31T17:35:27.856Z,12.17
2022-12-31T17:37:54.785Z,12.19
2022-12-31T17:40:52.859Z,12.19
2022-12-31T17:43:22.427Z,12.18
2022-12-31T17:45:54.399Z,12.15
2022-12-31T17:48:25.051Z,12.21
2022-12-31T17:50:53.993Z,12.24
2022-12-31T17:53:21.082Z,12.25
2022-12-31T17:55:50.784Z,12.27
2022-12-31T17:58:29.259Z,12.28
2022-12-31T18:00:57.635Z,12.30
2022-12-31T18:03:24.926Z,12.32
2022-12-31T18:05:51.889Z,12.34
2022-12-31T18:08:19.968Z,12.35
2022-12-31T18:10:47.394Z,12.36
2022-12-31T18:13:17.977Z,12.36
2022-12-31T18:15:45.014Z,12.38
2022-12-31T18:18:25.263Z,12.42
2022-12-31T18:20:57.699Z,12.43
2022-12-31T18:23:46.249Z,12.44
2022-12-31T18:26:15.441Z,12.40
2022-12-31T18:28:42.252Z,12.39
2022-12-31T18:31:18.751Z,12.43
2022-12-31T18:33:47.808Z,12.44
2022-12-31T18:36:17.115Z,12.48
2022-12-31T18:38:44.038Z,12.50
2022-12-31T18:41:18.529Z,12.50
2022-12-31T18:43:45.966Z,12.49
2022-12-31T18:46:14.830Z,12.51
2022-12-31T18:48:42.152Z,12.53
2022-12-31T18:51:15.965Z,12.53
2022-12-31T18:53:43.134Z,12.51
2022-12-31T18:56:13.457Z,12.51
2022-12-31T18:58:40.516Z,12.52
2022-12-31T19:01:37.893Z,12.54
2022-12-31T19:04:11.474Z,12.57
2022-12-31T19:06:38.312Z,12.59
2022-12-31T19:09:17.946Z,12.59
2022-12-31T19:11:52.294Z,12.58
2022-12-31T19:14:24.091Z,12.58
2022-12-31T19:16:51.974Z,12.61
2022-12-31T19:19:19.132Z,12.62
2022-12-31T19:21:46.385Z,12.64
2022-12-31T19:24:18.537Z,12.63
2022-12-31T19:26:46.717Z,12.61
2022-12-31T19:29:22.075Z,12.64
2022-12-31T19:31:49.587Z,12.68
2022-12-31T19:34:16.752Z,12.70
2022-12-31T19:36:44.285Z,12.70
2022-12-31T19:39:21.214Z,12.70
2022-12-31T19:41:58.517Z,12.70
2022-12-31T19:44:26.624Z,12.71
2022-12-31T19:46:53.467Z,12.73
2022-12-31T19:49:20.410Z,12.73
2022-12-31T19:51:47.207Z,12.72
2022-12-31T19:54:13.929Z,12.69
2022-12-31T19:56:40.968Z,12.66
2022-12-31T19:59:25.698Z,12.66
2022-12-31T20:01:52.883Z,12.66
2022-12-31T20:04:21.685Z,12.64
2022-12-31T20:06:50.915Z,12.63
2022-12-31T20:09:17.695Z,12.61
2022-12-31T20:11:44.807Z,12.58
2022-12-31T20:14:12.160Z,12.53
2022-12-31T20:16:56.208Z,12.50
2022-12-31T20:19:23.001Z,12.51
2022-12-31T20:21:49.864Z,12.51
2022-12-31T20:24:16.785Z,12.51
2022-12-31T20:26:43.560Z,12.49
2022-12-31T20:29:10.264Z,12.46
2022-12-31T20:31:37.169Z,12.44
2022-12-31T20:34:03.940Z,12.45
2022-12-31T20:36:31.124Z,12.46
2022-12-31T20:38:58.528Z,12.45
2022-12-31T20:41:26.299Z,12.43
2022-12-31T20:43:54.031Z,12.41
2022-12-31T20:46:24.867Z,12.43
2022-12-31T20:48:54.106Z,12.46
2022-12-31T20:51:22.578Z,12.46
2022-12-31T20:53:52.093Z,12.45
2022-12-31T20:56:19.217Z,12.44
2022-12-31T20:58:46.393Z,12.44
2022-12-31T21:01:14.583Z,12.42
2022-12-31T21:06:33.915Z,12.45
2022-12-31T21:09:03.772Z,12.44
2022-12-31T21:11:46.305Z,12.44
2022-12-31T21:14:13.791Z,12.42
2022-12-31T21:16:56.067Z,12.37
2022-12-31T21:19:23.200Z,12.32
2022-12-31T21:21:50.129Z,12.26
2022-12-31T21:24:23.289Z,12.24
2022-12-31T21:26:50.561Z,12.20
2022-12-31T21:29:17.367Z,12.20
2022-12-31T21:31:44.101Z,12.18
2022-12-31T21:34:10.989Z,12.16
2022-12-31T21:36:37.858Z,12.11
2022-12-31T21:39:04.740Z,12.06
2022-12-31T21:41:46.956Z,12.02
2022-12-31T21:44:13.732Z,12.00
2022-12-31T21:46:54.568Z,11.98
2022-12-31T21:49:27.549Z,11.94
2022-12-31T21:52:09.652Z,11.88
2022-12-31T21:54:51.996Z,11.81
2022-12-31T21:57:18.831Z,11.76
2022-12-31T22:00:32.028Z,11.75
2022-12-31T22:03:03.533Z,11.74
2022-12-31T22:05:30.351Z,11.71
2022-12-31T22:07:57.140Z,11.67
2022-12-31T22:10:43.582Z,11.63
2022-12-31T22:13:16.476Z,11.57
2022-12-31T22:15:44.910Z,11.53
2022-12-31T22:18:13.171Z,11.49
2022-12-31T22:20:41.005Z,11.47
2022-12-31T22:23:07.874Z,11.45
2022-12-31T22:25:35.471Z,11.42
2022-12-31T22:30:50.366Z,11.37
2022-12-31T22:33:17.255Z,11.34
2022-12-31T22:35:43.995Z,11.31
2022-12-31T22:38:12.353Z,11.29
2022-12-31T22:40:39.488Z,11.29
2022-12-31T22:43:06.267Z,11.30
2022-12-31T22:45:33.032Z,11.30
2022-12-31T22:47:59.916Z,11.30
2022-12-31T22:50:26.681Z,11.28
2022-12-31T22:52:53.422Z,11.26
2022-12-31T22:55:20.184Z,11.26
2022-12-31T22:57:46.904Z,11.22
2022-12-31T23:00:14.435Z,11.20
2022-12-31T23:02:42.138Z,11.17
2022-12-31T23:05:16.024Z,11.17
2022-12-31T23:07:43.271Z,11.16
2022-12-31T23:10:26.385Z,11.14
2022-12-31T23:12:53.232Z,11.15
2022-12-31T23:15:35.357Z,11.13
2022-12-31T23:18:17.786Z,11.12
2022-12-31T23:20:59.967Z,11.15
2022-12-31T23:23:26.908Z,11.17
2022-12-31T23:26:01.404Z,11.18
2022-12-31T23:28:28.174Z,11.19
2022-12-31T23:30:54.931Z,11.17
2022-12-31T23:33:24.568Z,11.15
2022-12-31T23:36:02.204Z,11.12
2022-12-31T23:38:28.946Z,11.12
2022-12-31T23:40:55.679Z,11.15
2022-12-31T23:43:22.959Z,11.17
2022-12-31T23:45:51.121Z,11.19
2022-12-31T23:48:17.872Z,11.22
2022-12-31T23:50:50.791Z,11.22
2022-12-31T23:53:19.702Z,11.24
2022-12-31T23:55:46.594Z,11.26
2022-12-31T23:58:13.352Z,11.27
